createdAt,value
2023-05-07T00:00:08.800Z,26.58
2023-05-07T00:02:36.572Z,26.55
2023-05-07T00:05:04.562Z,27.23
2023-05-07T00:07:32.247Z,26.50
2023-05-07T00:09:59.377Z,25.92
2023-05-07T00:12:27.060Z,24.83
2023-05-07T00:14:54.485Z,22.63
2023-05-07T00:17:21.934Z,23.85
2023-05-07T00:19:49.033Z,23.45
2023-05-07T00:22:16.608Z,24.40
2023-05-07T00:24:43.805Z,22.65
2023-05-07T00:27:10.930Z,22.90
2023-05-07T00:29:38.128Z,21.33
2023-05-07T00:32:06.227Z,22.23
2023-05-07T00:34:33.543Z,20.38
2023-05-07T00:37:00.743Z,21.58
2023-05-07T00:39:28.122Z,19.60
2023-05-07T00:41:55.369Z,23.63
2023-05-07T00:44:22.825Z,24.02
2023-05-07T00:46:50.657Z,25.15
2023-05-07T00:49:18.198Z,26.05
2023-05-07T00:51:45.989Z,24.33
2023-05-07T00:54:13.323Z,23.90
2023-05-07T00:56:40.809Z,23.52
2023-05-07T00:59:08.226Z,24.23
2023-05-07T01:01:35.648Z,23.70
2023-05-07T01:04:03.724Z,22.52
2023-05-07T01:06:31.597Z,22.52
2023-05-07T01:08:59.144Z,23.15
2023-05-07T01:11:26.751Z,22.27
2023-05-07T01:13:53.970Z,23.58
2023-05-07T01:16:22.496Z,23.40
2023-05-07T01:18:49.772Z,23.33
2023-05-07T01:21:17.826Z,22.33
2023-05-07T01:23:45.994Z,22.02
2023-05-07T01:26:13.409Z,19.77
2023-05-07T01:28:41.241Z,20.05
2023-05-07T01:31:09.027Z,19.70
2023-05-07T01:33:36.167Z,18.65
2023-05-07T01:36:07.455Z,18.05
2023-05-07T01:38:34.719Z,17.73
2023-05-07T01:41:02.069Z,18.52
2023-05-07T01:43:30.623Z,16.73
2023-05-07T01:45:58.920Z,18.00
2023-05-07T01:48:26.135Z,18.83
2023-05-07T01:50:53.818Z,17.80
2023-05-07T01:53:20.818Z,17.80
2023-05-07T01:55:48.350Z,19.20
2023-05-07T01:58:17.193Z,16.42
2023-05-07T02:00:44.402Z,19.33
2023-05-07T02:03:11.651Z,19.10
2023-05-07T02:05:46.174Z,19.17
2023-05-07T02:08:29.840Z,20.13
2023-05-07T02:10:58.084Z,20.83
2023-05-07T02:13:30.059Z,19.35
2023-05-07T02:15:58.568Z,19.95
2023-05-07T02:18:27.510Z,22.33
2023-05-07T02:20:55.376Z,20.38
2023-05-07T02:23:23.011Z,21.85
2023-05-07T02:25:50.183Z,18.35
2023-05-07T02:28:18.661Z,20.35
2023-05-07T02:31:05.921Z,21.05
2023-05-07T02:33:35.624Z,21.00
2023-05-07T02:36:10.782Z,20.90
2023-05-07T02:39:00.087Z,20.73
2023-05-07T02:41:29.161Z,19.70
2023-05-07T02:43:56.781Z,18.70
2023-05-07T02:46:24.006Z,19.15
2023-05-07T02:48:59.869Z,18.00
2023-05-07T02:51:28.128Z,17.88
2023-05-07T02:53:57.982Z,18.98
2023-05-07T02:56:27.631Z,18.08
2023-05-07T02:58:55.215Z,18.63
2023-05-07T03:01:26.171Z,17.65
2023-05-07T03:04:05.289Z,18.55
2023-05-07T03:06:32.799Z,18.40
2023-05-07T03:08:59.955Z,18.20
2023-05-07T03:11:27.298Z,18.23
2023-05-07T03:13:54.374Z,17.20
2023-05-07T03:16:22.821Z,17.27
2023-05-07T03:18:50.289Z,17.52
2023-05-07T03:21:17.491Z,16.75
2023-05-07T03:23:44.988Z,17.75
2023-05-07T03:26:12.010Z,16.73
2023-05-07T03:28:39.428Z,17.55
2023-05-07T03:31:11.283Z,17.50
2023-05-07T03:33:40.539Z,17.08
2023-05-07T03:36:08.156Z,16.13
2023-05-07T03:38:35.587Z,16.58
2023-05-07T03:41:03.330Z,14.98
2023-05-07T03:43:30.820Z,16.23
2023-05-07T03:46:05.648Z,14.48
2023-05-07T03:48:32.817Z,14.90
2023-05-07T03:51:00.279Z,14.90
2023-05-07T03:53:32.046Z,15.50
2023-05-07T03:55:59.279Z,13.07
2023-05-07T03:58:26.589Z,13.93
2023-05-07T04:00:56.945Z,14.18
2023-05-07T04:03:28.250Z,14.05
2023-05-07T04:05:58.951Z,14.10
2023-05-07T04:08:26.681Z,13.98
2023-05-07T04:10:59.308Z,13.25
2023-05-07T04:13:31.110Z,11.85
2023-05-07T04:16:00.109Z,10.80
2023-05-07T04:18:28.495Z,10.95
2023-05-07T04:20:56.053Z,11.73
2023-05-07T04:23:23.276Z,12.23
2023-05-07T04:25:51.513Z,12.48
2023-05-07T04:28:39.173Z,12.30
2023-05-07T04:31:07.865Z,11.80
2023-05-07T04:33:37.228Z,11.57
2023-05-07T04:36:06.440Z,10.90
2023-05-07T04:38:39.355Z,10.00
2023-05-07T04:41:07.336Z,10.82
2023-05-07T04:43:38.787Z,10.60
2023-05-07T04:46:06.205Z,10.23
2023-05-07T04:48:33.654Z,9.85
2023-05-07T04:51:02.421Z,10.13
2023-05-07T04:53:29.917Z,10.38
2023-05-07T04:55:58.664Z,11.02
2023-05-07T04:58:32.988Z,10.23
2023-05-07T05:01:01.456Z,10.43
2023-05-07T05:03:29.473Z,9.48
2023-05-07T05:06:00.756Z,9.98
2023-05-07T05:08:32.381Z,9.95
2023-05-07T05:11:03.025Z,10.50
2023-05-07T05:13:32.545Z,8.88
2023-05-07T05:16:03.298Z,7.53
2023-05-07T05:18:33.807Z,6.30
2023-05-07T05:21:00.962Z,5.70
2023-05-07T05:23:29.207Z,5.78
2023-05-07T05:25:58.773Z,6.10
2023-05-07T05:28:29.079Z,6.78
2023-05-07T05:30:57.278Z,6.57
2023-05-07T05:33:26.567Z,6.13
2023-05-07T05:35:55.310Z,6.07
2023-05-07T05:38:22.756Z,6.47
2023-05-07T05:40:50.695Z,6.68
2023-05-07T05:43:18.942Z,6.18
2023-05-07T05:45:46.041Z,5.57
2023-05-07T05:48:13.777Z,6.45
2023-05-07T05:50:43.018Z,6.10
2023-05-07T05:53:10.584Z,6.78
2023-05-07T05:55:38.468Z,5.90
2023-05-07T05:58:06.191Z,5.85
2023-05-07T06:00:37.132Z,6.18
2023-05-07T06:03:06.918Z,6.32
2023-05-07T06:05:35.095Z,6.30
2023-05-07T06:08:02.648Z,7.30
2023-05-07T06:10:33.451Z,6.03
2023-05-07T06:13:01.517Z,6.22
2023-05-07T06:15:31.229Z,5.72
2023-05-07T06:18:04.273Z,6.25
2023-05-07T06:20:31.691Z,7.10
2023-05-07T06:23:01.100Z,6.45
2023-05-07T06:25:29.144Z,6.65
2023-05-07T06:27:56.485Z,6.60
2023-05-07T06:30:25.842Z,7.10
2023-05-07T06:32:53.098Z,6.65
2023-05-07T06:35:20.970Z,7.13
2023-05-07T06:37:48.424Z,7.55
2023-05-07T06:40:20.795Z,7.50
2023-05-07T06:42:49.291Z,7.95
2023-05-07T06:45:29.652Z,7.68
2023-05-07T06:47:58.202Z,7.78
2023-05-07T06:50:26.611Z,8.35
2023-05-07T06:52:57.798Z,8.70
2023-05-07T06:55:26.754Z,8.93
2023-05-07T06:57:55.370Z,9.07
2023-05-07T07:00:24.738Z,7.97
2023-05-07T07:02:56.062Z,8.60
2023-05-07T07:05:26.387Z,8.95
2023-05-07T07:07:54.098Z,9.15
2023-05-07T07:10:25.151Z,8.77
2023-05-07T07:12:54.819Z,9.82
2023-05-07T07:15:23.018Z,10.30
2023-05-07T07:17:51.463Z,10.57
2023-05-07T07:20:18.583Z,10.45
2023-05-07T07:22:47.583Z,10.05
2023-05-07T07:25:16.877Z,10.80
2023-05-07T07:27:44.455Z,9.93
2023-05-07T07:30:13.425Z,11.13
2023-05-07T07:32:43.824Z,11.23
2023-05-07T07:35:11.126Z,11.32
2023-05-07T07:37:39.873Z,10.75
2023-05-07T07:40:07.936Z,10.60
2023-05-07T07:42:36.256Z,11.77
2023-05-07T07:45:04.180Z,11.45
2023-05-07T07:47:34.869Z,10.98
2023-05-07T07:50:03.157Z,11.43
2023-05-07T07:52:30.418Z,10.80
2023-05-07T07:54:58.024Z,11.43
2023-05-07T07:57:26.066Z,11.35
2023-05-07T07:59:53.836Z,11.25
2023-05-07T08:02:21.858Z,11.90
2023-05-07T08:04:50.602Z,8.95
2023-05-07T08:07:21.523Z,11.68
2023-05-07T08:09:49.504Z,10.82
2023-05-07T08:12:20.783Z,11.43
2023-05-07T08:14:49.332Z,12.25
2023-05-07T08:17:17.233Z,10.63
2023-05-07T08:19:45.725Z,10.70
2023-05-07T08:22:14.835Z,10.90
2023-05-07T08:24:42.422Z,11.48
2023-05-07T08:27:10.351Z,10.40
2023-05-07T08:29:38.968Z,11.40
2023-05-07T08:32:06.837Z,11.57
2023-05-07T08:34:34.317Z,10.75
2023-05-07T08:37:04.938Z,11.65
2023-05-07T08:39:33.142Z,12.15
2023-05-07T08:42:02.872Z,11.10
2023-05-07T08:44:31.699Z,11.20
2023-05-07T08:46:59.286Z,10.45
2023-05-07T08:49:28.406Z,11.20
2023-05-07T08:51:56.851Z,11.82
2023-05-07T08:54:25.320Z,11.30
2023-05-07T08:56:52.580Z,12.82
2023-05-07T08:59:20.193Z,11.18
2023-05-07T09:01:48.173Z,11.82
2023-05-07T09:04:16.312Z,12.15
2023-05-07T09:06:44.767Z,11.85
2023-05-07T09:09:19.472Z,11.15
2023-05-07T09:11:46.927Z,10.60
2023-05-07T09:14:16.978Z,11.95
2023-05-07T09:16:47.148Z,10.57
2023-05-07T09:19:14.969Z,10.68
2023-05-07T09:21:46.067Z,10.35
2023-05-07T09:24:16.363Z,10.82
2023-05-07T09:26:44.173Z,8.20
2023-05-07T09:29:12.477Z,11.70
2023-05-07T09:31:41.060Z,11.05
2023-05-07T09:34:11.940Z,9.63
2023-05-07T09:36:42.282Z,10.43
2023-05-07T09:39:09.564Z,11.55
2023-05-07T09:41:44.993Z,10.85
2023-05-07T09:44:19.510Z,9.48
2023-05-07T09:46:54.403Z,10.23
2023-05-07T09:49:27.902Z,11.45
2023-05-07T09:52:02.026Z,9.10
2023-05-07T09:54:32.218Z,10.88
2023-05-07T09:57:03.258Z,11.20
2023-05-07T09:59:32.397Z,11.65
2023-05-07T10:02:04.173Z,9.98
2023-05-07T10:04:35.390Z,10.32
2023-05-07T10:07:03.379Z,9.30
2023-05-07T10:09:31.386Z,8.77
2023-05-07T10:11:59.317Z,8.73
2023-05-07T10:14:26.505Z,8.40
2023-05-07T10:16:53.767Z,10.77
2023-05-07T10:19:21.740Z,10.55
2023-05-07T10:21:57.800Z,10.30
2023-05-07T10:24:28.392Z,9.75
2023-05-07T10:26:56.580Z,8.50
2023-05-07T10:29:32.272Z,8.90
2023-05-07T10:32:22.885Z,9.70
2023-05-07T10:34:52.156Z,10.10
2023-05-07T10:37:19.618Z,9.82
2023-05-07T10:39:46.868Z,9.30
2023-05-07T10:42:15.012Z,8.88
2023-05-07T10:44:48.646Z,9.18
2023-05-07T10:47:23.294Z,9.23
2023-05-07T10:50:06.408Z,9.40
2023-05-07T10:52:38.990Z,8.43
2023-05-07T10:55:20.710Z,9.05
2023-05-07T10:57:56.524Z,10.50
2023-05-07T11:03:03.636Z,9.63
2023-05-07T11:05:38.839Z,9.25
2023-05-07T11:08:16.329Z,9.48
2023-05-07T11:11:04.777Z,9.27
2023-05-07T11:13:52.605Z,9.60
2023-05-07T11:16:43.122Z,10.00
2023-05-07T11:19:53.049Z,9.93
2023-05-07T11:22:40.559Z,9.32
2023-05-07T11:25:20.489Z,8.88
2023-05-07T11:27:53.665Z,10.00
2023-05-07T11:30:20.922Z,9.55
2023-05-07T11:32:49.329Z,8.98
2023-05-07T11:35:18.093Z,10.35
2023-05-07T11:37:48.071Z,9.95
2023-05-07T11:40:16.429Z,9.60
2023-05-07T11:42:44.517Z,10.02
2023-05-07T11:45:12.298Z,10.10
2023-05-07T11:47:40.001Z,10.27
2023-05-07T11:50:11.707Z,10.30
2023-05-07T11:52:40.004Z,9.90
2023-05-07T11:55:09.186Z,9.95
2023-05-07T11:57:36.794Z,10.38
2023-05-07T12:00:05.747Z,9.85
2023-05-07T12:02:44.649Z,10.07
2023-05-07T12:05:12.139Z,10.38
2023-05-07T12:07:39.702Z,9.95
2023-05-07T12:10:07.522Z,9.43
2023-05-07T12:12:42.514Z,9.57
2023-05-07T12:15:11.341Z,9.73
2023-05-07T12:17:38.717Z,8.73
2023-05-07T12:20:06.830Z,9.25
2023-05-07T12:22:34.249Z,9.63
2023-05-07T12:25:01.385Z,10.35
2023-05-07T12:27:29.101Z,9.18
2023-05-07T12:29:58.349Z,9.40
2023-05-07T12:32:25.957Z,9.70
2023-05-07T12:34:53.212Z,9.50
2023-05-07T12:37:27.219Z,10.50
2023-05-07T12:42:41.934Z,10.27
2023-05-07T12:45:14.188Z,10.23
2023-05-07T12:47:46.210Z,9.93
2023-05-07T12:50:15.015Z,9.90
2023-05-07T12:52:42.521Z,9.88
2023-05-07T12:55:10.721Z,9.68
2023-05-07T12:57:43.328Z,9.52
2023-05-07T13:00:11.414Z,9.98
2023-05-07T13:02:39.111Z,9.82
2023-05-07T13:05:07.036Z,9.60
2023-05-07T13:07:34.767Z,8.77
2023-05-07T13:10:01.981Z,8.32
2023-05-07T13:12:29.404Z,8.95
2023-05-07T13:14:56.832Z,8.95
2023-05-07T13:17:24.065Z,8.40
2023-05-07T13:19:51.648Z,8.50
2023-05-07T13:22:19.130Z,9.00
2023-05-07T13:24:46.504Z,8.45
2023-05-07T13:27:13.675Z,7.67
2023-05-07T13:29:40.742Z,7.43
2023-05-07T13:32:08.612Z,7.95
2023-05-07T13:34:36.144Z,7.15
2023-05-07T13:37:03.229Z,7.70
2023-05-07T13:39:30.981Z,7.40
2023-05-07T13:41:58.448Z,7.93
2023-05-07T13:44:27.046Z,7.95
2023-05-07T13:46:54.239Z,7.47
2023-05-07T13:49:21.352Z,7.72
2023-05-07T13:51:48.730Z,7.78
2023-05-07T13:54:16.588Z,7.40
2023-05-07T13:56:43.633Z,7.03
2023-05-07T13:59:11.001Z,6.85
2023-05-07T14:01:38.195Z,7.57
2023-05-07T14:04:05.704Z,7.70
2023-05-07T14:06:33.141Z,7.10
2023-05-07T14:09:00.859Z,7.70
2023-05-07T14:11:28.557Z,7.22
2023-05-07T14:13:57.519Z,7.13
2023-05-07T14:16:24.669Z,6.57
2023-05-07T14:18:52.239Z,6.90
2023-05-07T14:21:19.578Z,6.80
2023-05-07T14:23:47.435Z,6.68
2023-05-07T14:26:14.646Z,6.40
2023-05-07T14:28:47.074Z,6.72
2023-05-07T14:31:14.564Z,6.63
2023-05-07T14:33:42.319Z,6.38
2023-05-07T14:36:09.958Z,6.07
2023-05-07T14:38:37.376Z,7.15
2023-05-07T14:41:05.057Z,7.18
2023-05-07T14:43:32.542Z,6.03
2023-05-07T14:45:59.826Z,6.53
2023-05-07T14:48:27.290Z,6.88
2023-05-07T14:50:54.446Z,6.65
2023-05-07T14:53:22.525Z,7.25
2023-05-07T14:55:49.932Z,6.28
2023-05-07T14:58:17.170Z,6.78
2023-05-07T15:00:44.590Z,6.63
2023-05-07T15:03:12.357Z,6.65
2023-05-07T15:05:42.885Z,6.90
2023-05-07T15:08:10.583Z,7.15
2023-05-07T15:10:41.907Z,6.70
2023-05-07T15:13:13.338Z,6.63
2023-05-07T15:15:43.386Z,7.13
2023-05-07T15:18:10.787Z,7.18
2023-05-07T15:20:38.333Z,7.57
2023-05-07T15:23:06.886Z,6.25
2023-05-07T15:25:34.549Z,6.53
2023-05-07T15:28:02.186Z,7.07
2023-05-07T15:30:29.698Z,6.40
2023-05-07T15:32:57.406Z,6.60
2023-05-07T15:35:26.686Z,6.00
2023-05-07T15:37:54.655Z,5.50
2023-05-07T15:40:22.012Z,5.30
2023-05-07T15:42:49.614Z,5.07
2023-05-07T15:45:17.173Z,6.32
2023-05-07T15:47:44.791Z,11.57
2023-05-07T15:50:12.491Z,14.60
2023-05-07T15:52:41.549Z,18.70
2023-05-07T15:55:09.911Z,15.35
2023-05-07T15:57:37.681Z,13.48
2023-05-07T16:00:08.916Z,12.00
2023-05-07T16:02:42.324Z,11.73
2023-05-07T16:05:11.407Z,11.85
2023-05-07T16:07:39.860Z,8.75
2023-05-07T16:10:09.607Z,8.77
2023-05-07T16:12:37.433Z,9.30
2023-05-07T16:15:05.711Z,8.68
2023-05-07T16:17:34.102Z,6.75
2023-05-07T16:20:02.197Z,6.25
2023-05-07T16:22:31.428Z,6.13
2023-05-07T16:24:58.814Z,6.40
2023-05-07T16:27:26.209Z,6.15
2023-05-07T16:29:53.872Z,7.15
2023-05-07T16:32:21.259Z,9.50
2023-05-07T16:34:48.688Z,13.85
2023-05-07T16:37:15.930Z,20.58
2023-05-07T16:39:43.004Z,22.17
2023-05-07T16:42:10.225Z,18.05
2023-05-07T16:44:37.265Z,19.13
2023-05-07T16:47:04.858Z,20.77
2023-05-07T16:49:31.940Z,17.73
2023-05-07T16:51:59.066Z,17.90
2023-05-07T16:54:26.150Z,19.48
2023-05-07T16:56:53.669Z,19.40
2023-05-07T16:59:20.823Z,22.70
2023-05-07T17:01:48.227Z,22.67
2023-05-07T17:04:15.372Z,17.08
2023-05-07T17:06:42.815Z,16.88
2023-05-07T17:09:10.281Z,13.02
2023-05-07T17:11:37.581Z,9.82
2023-05-07T17:14:05.788Z,7.30
2023-05-07T17:16:33.682Z,8.98
2023-05-07T17:19:00.964Z,9.27
2023-05-07T17:21:28.942Z,8.15
2023-05-07T17:23:56.121Z,5.90
2023-05-07T17:26:23.532Z,6.30
2023-05-07T17:28:50.767Z,9.23
2023-05-07T17:31:18.711Z,5.68
2023-05-07T17:33:46.237Z,5.90
2023-05-07T17:36:14.217Z,4.53
2023-05-07T17:38:41.423Z,4.88
2023-05-07T17:41:08.564Z,6.68
2023-05-07T17:43:35.804Z,5.45
2023-05-07T17:46:03.252Z,6.68
2023-05-07T17:48:31.126Z,5.75
2023-05-07T17:51:04.655Z,5.40
2023-05-07T17:53:32.223Z,5.80
2023-05-07T17:55:59.521Z,5.38
2023-05-07T17:58:27.084Z,4.90
2023-05-07T18:00:55.180Z,4.75
2023-05-07T18:03:24.229Z,8.15
2023-05-07T18:05:51.743Z,7.80
2023-05-07T18:08:18.709Z,10.65
2023-05-07T18:10:46.026Z,7.90
2023-05-07T18:13:13.424Z,10.35
2023-05-07T18:15:40.728Z,10.20
2023-05-07T18:18:08.107Z,10.38
2023-05-07T18:20:35.561Z,11.40
2023-05-07T18:23:04.032Z,12.85
2023-05-07T18:25:31.545Z,11.43
2023-05-07T18:27:58.690Z,14.43
2023-05-07T18:30:26.038Z,14.45
2023-05-07T18:32:53.393Z,17.95
2023-05-07T18:35:20.620Z,19.15
2023-05-07T18:37:47.672Z,20.27
2023-05-07T18:40:15.095Z,21.23
2023-05-07T18:42:42.703Z,23.67
2023-05-07T18:45:10.335Z,24.13
2023-05-07T18:47:37.415Z,23.80
2023-05-07T18:50:06.264Z,24.48
2023-05-07T18:52:35.902Z,21.88
2023-05-07T18:55:03.752Z,23.85
2023-05-07T18:57:31.157Z,19.70
2023-05-07T18:59:58.558Z,23.30
2023-05-07T19:02:25.920Z,15.80
2023-05-07T19:04:53.244Z,14.05
2023-05-07T19:07:20.786Z,17.73
2023-05-07T19:10:00.985Z,21.13
2023-05-07T19:12:31.135Z,22.05
2023-05-07T19:14:58.359Z,22.38
2023-05-07T19:17:25.532Z,23.05
2023-05-07T19:19:52.913Z,22.48
2023-05-07T19:22:20.260Z,22.75
2023-05-07T19:24:47.639Z,23.48
2023-05-07T19:27:15.110Z,25.17
2023-05-07T19:29:42.958Z,30.10
2023-05-07T19:32:10.102Z,26.67
2023-05-07T19:34:37.651Z,32.78
2023-05-07T19:37:05.584Z,37.15
2023-05-07T19:39:33.327Z,65.15
2023-05-07T19:42:00.317Z,50.00
2023-05-07T19:44:27.758Z,43.65
2023-05-07T19:46:55.155Z,52.58
2023-05-07T19:49:22.538Z,43.25
2023-05-07T19:51:49.761Z,45.13
2023-05-07T19:54:17.207Z,53.20
2023-05-07T19:56:44.560Z,50.97
2023-05-07T19:59:11.698Z,70.60
2023-05-07T20:01:38.904Z,83.35
2023-05-07T20:04:06.319Z,90.65
2023-05-07T20:06:33.700Z,101.93
2023-05-07T20:09:01.250Z,112.38
2023-05-07T20:11:28.490Z,121.82
2023-05-07T20:13:55.660Z,116.68
2023-05-07T20:16:23.007Z,113.75
2023-05-07T20:18:50.321Z,109.82
2023-05-07T20:21:17.686Z,94.15
2023-05-07T20:23:44.827Z,64.13
2023-05-07T20:26:12.469Z,77.10
2023-05-07T20:28:39.691Z,65.07
2023-05-07T20:31:07.052Z,71.00
2023-05-07T20:33:34.538Z,101.93
2023-05-07T20:36:01.945Z,80.72
2023-05-07T20:38:33.515Z,65.22
2023-05-07T20:41:11.399Z,74.43
2023-05-07T20:43:39.014Z,77.30
2023-05-07T20:46:07.592Z,74.55
2023-05-07T20:48:34.985Z,75.10
2023-05-07T20:51:02.318Z,63.80
2023-05-07T20:53:30.985Z,62.17
2023-05-07T20:55:59.816Z,62.78
2023-05-07T20:58:29.834Z,77.88
2023-05-07T21:00:57.049Z,119.10
2023-05-07T21:03:24.441Z,69.32
2023-05-07T21:05:55.953Z,87.05
2023-05-07T21:08:23.539Z,100.95
2023-05-07T21:10:51.667Z,104.90
2023-05-07T21:13:18.921Z,110.65
2023-05-07T21:15:46.318Z,109.70
2023-05-07T21:18:13.696Z,94.25
2023-05-07T21:20:41.165Z,99.72
2023-05-07T21:23:08.557Z,99.53
2023-05-07T21:25:39.308Z,92.43
2023-05-07T21:28:08.460Z,96.05
2023-05-07T21:30:36.611Z,94.35
2023-05-07T21:33:06.302Z,57.55
2023-05-07T21:35:36.537Z,65.32
2023-05-07T21:38:03.762Z,55.17
2023-05-07T21:40:31.484Z,52.90
2023-05-07T21:43:00.078Z,54.67
2023-05-07T21:45:27.293Z,52.03
2023-05-07T21:47:54.585Z,56.00
2023-05-07T21:50:22.293Z,70.00
2023-05-07T21:52:49.724Z,77.22
2023-05-07T21:55:20.210Z,77.30
2023-05-07T21:58:01.244Z,68.65
2023-05-07T22:00:32.771Z,68.63
2023-05-07T22:03:00.287Z,75.60
2023-05-07T22:05:27.700Z,79.35
2023-05-07T22:07:54.744Z,82.68
2023-05-07T22:10:22.945Z,78.75
2023-05-07T22:12:50.492Z,76.47
2023-05-07T22:15:18.418Z,48.63
2023-05-07T22:17:45.804Z,42.90
2023-05-07T22:20:13.403Z,37.20
2023-05-07T22:22:53.183Z,44.05
2023-05-07T22:25:24.023Z,26.63
2023-05-07T22:27:51.544Z,20.35
2023-05-07T22:30:19.092Z,16.50
2023-05-07T22:32:46.195Z,16.45
2023-05-07T22:35:13.402Z,17.42
2023-05-07T22:37:40.675Z,16.00
2023-05-07T22:40:08.412Z,12.95
2023-05-07T22:42:35.624Z,13.85
2023-05-07T22:45:03.259Z,13.20
2023-05-07T22:47:33.566Z,20.75
2023-05-07T22:50:01.458Z,31.20
2023-05-07T22:52:29.366Z,52.50
2023-05-07T22:54:56.324Z,67.78
2023-05-07T22:57:23.464Z,64.70
2023-05-07T22:59:54.380Z,52.03
2023-05-07T23:02:22.068Z,58.42
2023-05-07T23:04:50.057Z,44.45
2023-05-07T23:07:17.038Z,49.65
2023-05-07T23:09:44.437Z,53.17
2023-05-07T23:12:12.033Z,61.70
2023-05-07T23:14:39.454Z,39.60
2023-05-07T23:17:06.683Z,33.78
2023-05-07T23:19:34.298Z,35.13
2023-05-07T23:22:01.759Z,29.52
2023-05-07T23:24:28.744Z,28.75
2023-05-07T23:26:56.081Z,27.33
2023-05-07T23:29:23.614Z,29.83
2023-05-07T23:31:51.227Z,32.40
2023-05-07T23:34:23.942Z,29.63
2023-05-07T23:36:51.642Z,32.25
2023-05-07T23:39:19.136Z,34.78
2023-05-07T23:41:46.511Z,38.17
2023-05-07T23:44:16.119Z,49.88
2023-05-07T23:46:44.245Z,45.00
2023-05-07T23:49:11.475Z,43.15
2023-05-07T23:51:38.622Z,40.28
2023-05-07T23:54:06.748Z,39.58
2023-05-07T23:56:34.163Z,37.72
2023-05-07T23:59:01.393Z,36.60
